sensor_id;sensor_type;location;lat;lon;timestamp;pressure;altitude;pressure_sealevel;temperature;humidity
21706;BME280;11014;53.076;18.208;2023-03-18T00:02:23;101458.84;;;8.00;44.51
21706;BME280;11014;53.076;18.208;2023-03-18T00:04:52;101463.16;;;8.01;44.33
21706;BME280;11014;53.076;18.208;2023-03-18T00:07:21;101462.34;;;8.01;44.53
21706;BME280;11014;53.076;18.208;2023-03-18T00:09:55;101459.88;;;7.99;44.50
21706;BME280;11014;53.076;18.208;2023-03-18T00:12:27;101450.38;;;7.97;44.34
21706;BME280;11014;53.076;18.208;2023-03-18T00:14:56;101454.91;;;7.96;44.40
21706;BME280;11014;53.076;18.208;2023-03-18T00:17:28;101443.34;;;7.96;44.44
21706;BME280;11014;53.076;18.208;2023-03-18T00:19:57;101449.94;;;7.93;44.36
21706;BME280;11014;53.076;18.208;2023-03-18T00:22:35;101452.81;;;7.92;44.40
21706;BME280;11014;53.076;18.208;2023-03-18T00:25:07;101440.44;;;7.91;44.56
21706;BME280;11014;53.076;18.208;2023-03-18T00:27:41;101429.94;;;7.89;44.51
21706;BME280;11014;53.076;18.208;2023-03-18T00:30:13;101423.16;;;7.87;44.51
21706;BME280;11014;53.076;18.208;2023-03-18T00:32:42;101427.66;;;7.86;44.40
21706;BME280;11014;53.076;18.208;2023-03-18T00:35:12;101429.69;;;7.84;44.49
21706;BME280;11014;53.076;18.208;2023-03-18T00:37:42;101415.88;;;7.81;44.53
21706;BME280;11014;53.076;18.208;2023-03-18T00:40:12;101424.09;;;7.79;44.67
21706;BME280;11014;53.076;18.208;2023-03-18T00:42:48;101427.13;;;7.76;44.58
21706;BME280;11014;53.076;18.208;2023-03-18T00:45:26;101423.66;;;7.75;44.82
21706;BME280;11014;53.076;18.208;2023-03-18T00:47:55;101430.84;;;7.75;45.01
21706;BME280;11014;53.076;18.208;2023-03-18T00:50:23;101430.22;;;7.73;44.99
21706;BME280;11014;53.076;18.208;2023-03-18T00:52:52;101428.94;;;7.69;44.99
21706;BME280;11014;53.076;18.208;2023-03-18T00:55:23;101424.59;;;7.68;44.96
21706;BME280;11014;53.076;18.208;2023-03-18T00:57:53;101426.66;;;7.66;44.89
21706;BME280;11014;53.076;18.208;2023-03-18T01:00:22;101410.81;;;7.64;44.94
21706;BME280;11014;53.076;18.208;2023-03-18T01:02:53;101405.63;;;7.63;44.89
21706;BME280;11014;53.076;18.208;2023-03-18T01:05:47;101406.28;;;7.65;45.10
21706;BME280;11014;53.076;18.208;2023-03-18T01:08:16;101398.38;;;7.57;45.09
21706;BME280;11014;53.076;18.208;2023-03-18T01:10:47;101394.63;;;7.51;45.53
21706;BME280;11014;53.076;18.208;2023-03-18T01:13:16;101406.34;;;7.50;45.18
21706;BME280;11014;53.076;18.208;2023-03-18T01:15:44;101395.22;;;7.47;45.51
21706;BME280;11014;53.076;18.208;2023-03-18T01:18:13;101393.56;;;7.46;45.31
21706;BME280;11014;53.076;18.208;2023-03-18T01:20:42;101384.91;;;7.44;45.69
21706;BME280;11014;53.076;18.208;2023-03-18T01:23:13;101392.91;;;7.44;45.59
21706;BME280;11014;53.076;18.208;2023-03-18T01:25:43;101390.63;;;7.41;45.61
21706;BME280;11014;53.076;18.208;2023-03-18T01:28:19;101387.31;;;7.39;45.59
21706;BME280;11014;53.076;18.208;2023-03-18T01:30:48;101390.19;;;7.37;45.76
21706;BME280;11014;53.076;18.208;2023-03-18T01:33:20;101396.13;;;7.54;45.23
21706;BME280;11014;53.076;18.208;2023-03-18T01:35:54;101395.09;;;7.34;45.56
21706;BME280;11014;53.076;18.208;2023-03-18T01:38:28;101396.22;;;7.25;45.84
21706;BME280;11014;53.076;18.208;2023-03-18T01:41:05;101401.94;;;7.22;46.23
21706;BME280;11014;53.076;18.208;2023-03-18T01:43:37;101402.13;;;7.20;45.97
21706;BME280;11014;53.076;18.208;2023-03-18T01:48:55;101400.66;;;7.18;46.24
21706;BME280;11014;53.076;18.208;2023-03-18T01:51:25;101391.19;;;7.15;46.42
21706;BME280;11014;53.076;18.208;2023-03-18T01:53:56;101396.53;;;7.15;46.24
21706;BME280;11014;53.076;18.208;2023-03-18T01:56:27;101393.22;;;7.13;46.49
21706;BME280;11014;53.076;18.208;2023-03-18T01:58:58;101390.72;;;7.11;46.67
21706;BME280;11014;53.076;18.208;2023-03-18T02:04:18;101396.44;;;7.08;46.59
21706;BME280;11014;53.076;18.208;2023-03-18T02:06:48;101401.16;;;7.06;46.54
21706;BME280;11014;53.076;18.208;2023-03-18T02:09:17;101398.88;;;7.03;46.62
21706;BME280;11014;53.076;18.208;2023-03-18T02:11:47;101399.25;;;7.00;46.61
21706;BME280;11014;53.076;18.208;2023-03-18T02:14:22;101401.91;;;7.00;46.67
21706;BME280;11014;53.076;18.208;2023-03-18T02:22:33;101391.84;;;7.02;46.66
21706;BME280;11014;53.076;18.208;2023-03-18T02:25:32;101384.50;;;7.04;46.95
21706;BME280;11014;53.076;18.208;2023-03-18T02:28:08;101402.94;;;6.99;46.77
21706;BME280;11014;53.076;18.208;2023-03-18T02:30:45;101400.66;;;6.96;47.11
21706;BME280;11014;53.076;18.208;2023-03-18T02:33:19;101402.66;;;6.94;47.01
21706;BME280;11014;53.076;18.208;2023-03-18T02:35:56;101398.34;;;6.93;47.07
21706;BME280;11014;53.076;18.208;2023-03-18T02:38:26;101393.00;;;6.93;47.38
21706;BME280;11014;53.076;18.208;2023-03-18T02:40:54;101394.63;;;6.94;47.01
21706;BME280;11014;53.076;18.208;2023-03-18T02:43:31;101397.50;;;6.93;47.04
21706;BME280;11014;53.076;18.208;2023-03-18T02:46:31;101397.78;;;6.98;47.41
21706;BME280;11014;53.076;18.208;2023-03-18T02:49:04;101394.63;;;6.94;47.35
21706;BME280;11014;53.076;18.208;2023-03-18T02:51:37;101388.94;;;6.97;47.45
21706;BME280;11014;53.076;18.208;2023-03-18T02:54:12;101395.94;;;6.98;47.48
21706;BME280;11014;53.076;18.208;2023-03-18T02:56:42;101397.97;;;6.96;47.47
21706;BME280;11014;53.076;18.208;2023-03-18T02:59:11;101390.59;;;6.98;47.31
21706;BME280;11014;53.076;18.208;2023-03-18T03:01:44;101390.22;;;7.01;47.49
21706;BME280;11014;53.076;18.208;2023-03-18T03:04:14;101403.56;;;7.01;47.55
21706;BME280;11014;53.076;18.208;2023-03-18T03:06:44;101399.69;;;7.04;47.68
21706;BME280;11014;53.076;18.208;2023-03-18T03:09:16;101386.13;;;7.05;47.52
21706;BME280;11014;53.076;18.208;2023-03-18T03:11:45;101394.81;;;7.07;47.15
21706;BME280;11014;53.076;18.208;2023-03-18T03:14:20;101388.06;;;7.11;47.16
21706;BME280;11014;53.076;18.208;2023-03-18T03:16:53;101387.06;;;7.12;47.37
21706;BME280;11014;53.076;18.208;2023-03-18T03:19:25;101380.31;;;7.16;47.30
21706;BME280;11014;53.076;18.208;2023-03-18T03:21:55;101388.78;;;7.20;47.29
21706;BME280;11014;53.076;18.208;2023-03-18T03:24:25;101383.22;;;7.22;47.25
21706;BME280;11014;53.076;18.208;2023-03-18T03:26:53;101375.22;;;7.22;47.44
21706;BME280;11014;53.076;18.208;2023-03-18T03:29:22;101376.03;;;7.22;47.22
21706;BME280;11014;53.076;18.208;2023-03-18T03:31:51;101377.50;;;7.25;47.24
21706;BME280;11014;53.076;18.208;2023-03-18T03:34:19;101373.63;;;7.27;47.36
21706;BME280;11014;53.076;18.208;2023-03-18T03:36:48;101372.41;;;7.30;47.21
21706;BME280;11014;53.076;18.208;2023-03-18T03:39:17;101374.09;;;7.31;47.32
21706;BME280;11014;53.076;18.208;2023-03-18T03:41:46;101374.91;;;7.31;47.13
21706;BME280;11014;53.076;18.208;2023-03-18T03:44:16;101374.09;;;7.31;47.21
21706;BME280;11014;53.076;18.208;2023-03-18T03:46:49;101372.25;;;7.31;47.23
21706;BME280;11014;53.076;18.208;2023-03-18T03:49:18;101368.72;;;7.31;46.91
21706;BME280;11014;53.076;18.208;2023-03-18T03:51:47;101372.03;;;7.33;47.09
21706;BME280;11014;53.076;18.208;2023-03-18T03:54:15;101364.22;;;7.31;47.06
21706;BME280;11014;53.076;18.208;2023-03-18T03:56:45;101365.88;;;7.32;47.23
21706;BME280;11014;53.076;18.208;2023-03-18T03:59:14;101359.72;;;7.32;46.94
21706;BME280;11014;53.076;18.208;2023-03-18T04:02:09;101358.50;;;7.34;47.08
21706;BME280;11014;53.076;18.208;2023-03-18T04:04:38;101347.97;;;7.33;46.92
21706;BME280;11014;53.076;18.208;2023-03-18T04:07:11;101359.50;;;7.33;47.14
21706;BME280;11014;53.076;18.208;2023-03-18T04:09:41;101342.88;;;7.38;46.88
21706;BME280;11014;53.076;18.208;2023-03-18T04:12:10;101339.22;;;7.39;46.82
21706;BME280;11014;53.076;18.208;2023-03-18T04:14:40;101345.38;;;7.39;47.09
21706;BME280;11014;53.076;18.208;2023-03-18T04:17:09;101355.88;;;7.41;47.13
21706;BME280;11014;53.076;18.208;2023-03-18T04:19:38;101358.38;;;7.42;47.02
21706;BME280;11014;53.076;18.208;2023-03-18T04:22:07;101356.53;;;7.43;47.03
21706;BME280;11014;53.076;18.208;2023-03-18T04:24:38;101358.16;;;7.44;46.80
21706;BME280;11014;53.076;18.208;2023-03-18T04:27:07;101357.53;;;7.42;46.62
21706;BME280;11014;53.076;18.208;2023-03-18T04:29:36;101367.84;;;7.45;46.51
21706;BME280;11014;53.076;18.208;2023-03-18T04:32:05;101372.56;;;7.43;46.88
21706;BME280;11014;53.076;18.208;2023-03-18T04:34:36;101382.88;;;7.46;46.81
21706;BME280;11014;53.076;18.208;2023-03-18T04:37:06;101369.50;;;7.46;46.60
21706;BME280;11014;53.076;18.208;2023-03-18T04:39:40;101368.84;;;7.44;46.69
21706;BME280;11014;53.076;18.208;2023-03-18T04:42:11;101376.88;;;7.65;46.17
21706;BME280;11014;53.076;18.208;2023-03-18T04:44:40;101367.09;;;7.51;46.19
21706;BME280;11014;53.076;18.208;2023-03-18T04:47:09;101372.13;;;7.39;46.52
21706;BME280;11014;53.076;18.208;2023-03-18T04:49:38;101378.28;;;7.40;46.77
21706;BME280;11014;53.076;18.208;2023-03-18T04:52:08;101373.69;;;7.34;46.62
21706;BME280;11014;53.076;18.208;2023-03-18T04:54:37;101362.25;;;7.40;46.43
21706;BME280;11014;53.076;18.208;2023-03-18T04:57:07;101373.56;;;7.42;46.51
21706;BME280;11014;53.076;18.208;2023-03-18T04:59:42;101372.19;;;7.46;46.38
21706;BME280;11014;53.076;18.208;2023-03-18T05:02:11;101363.50;;;7.44;46.60
21706;BME280;11014;53.076;18.208;2023-03-18T05:04:46;101374.19;;;7.44;46.74
21706;BME280;11014;53.076;18.208;2023-03-18T05:07:15;101374.19;;;7.44;46.71
21706;BME280;11014;53.076;18.208;2023-03-18T05:09:54;101375.88;;;7.45;46.57
21706;BME280;11014;53.076;18.208;2023-03-18T05:12:23;101369.69;;;7.44;46.61
21706;BME280;11014;53.076;18.208;2023-03-18T05:14:53;101371.53;;;7.44;46.69
21706;BME280;11014;53.076;18.208;2023-03-18T05:17:22;101371.16;;;7.47;46.77
21706;BME280;11014;53.076;18.208;2023-03-18T05:19:57;101369.75;;;7.51;46.68
21706;BME280;11014;53.076;18.208;2023-03-18T05:22:26;101363.38;;;7.52;46.58
21706;BME280;11014;53.076;18.208;2023-03-18T05:25:05;101354.97;;;7.55;46.41
21706;BME280;11014;53.076;18.208;2023-03-18T05:27:34;101357.66;;;7.55;46.39
21706;BME280;11014;53.076;18.208;2023-03-18T05:30:12;101355.59;;;7.57;46.43
21706;BME280;11014;53.076;18.208;2023-03-18T05:32:46;101353.75;;;7.57;46.42
21706;BME280;11014;53.076;18.208;2023-03-18T05:35:17;101350.69;;;7.60;46.55
21706;BME280;11014;53.076;18.208;2023-03-18T05:37:49;101351.31;;;7.62;46.73
21706;BME280;11014;53.076;18.208;2023-03-18T05:40:18;101335.28;;;7.62;46.41
21706;BME280;11014;53.076;18.208;2023-03-18T05:43:01;101335.06;;;7.85;46.37
21706;BME280;11014;53.076;18.208;2023-03-18T05:45:37;101332.91;;;7.74;46.43
21706;BME280;11014;53.076;18.208;2023-03-18T05:48:12;101331.28;;;7.73;46.54
21706;BME280;11014;53.076;18.208;2023-03-18T05:50:49;101330.69;;;7.78;46.17
21706;BME280;11014;53.076;18.208;2023-03-18T05:53:24;101327.41;;;7.82;46.16
21706;BME280;11014;53.076;18.208;2023-03-18T05:56:03;101320.84;;;7.85;46.19
21706;BME280;11014;53.076;18.208;2023-03-18T05:58:33;101324.19;;;7.93;46.28
21706;BME280;11014;53.076;18.208;2023-03-18T06:01:19;101322.19;;;8.02;46.16
21706;BME280;11014;53.076;18.208;2023-03-18T06:03:52;101327.75;;;8.00;46.22
21706;BME280;11014;53.076;18.208;2023-03-18T06:06:25;101326.94;;;8.06;45.92
21706;BME280;11014;53.076;18.208;2023-03-18T06:08:54;101322.47;;;8.13;45.75
21706;BME280;11014;53.076;18.208;2023-03-18T06:11:26;101314.81;;;8.38;45.36
21706;BME280;11014;53.076;18.208;2023-03-18T06:13:57;101308.19;;;8.27;45.28
21706;BME280;11014;53.076;18.208;2023-03-18T06:16:26;101300.50;;;8.24;45.07
21706;BME280;11014;53.076;18.208;2023-03-18T06:18:59;101306.97;;;8.30;45.23
21706;BME280;11014;53.076;18.208;2023-03-18T06:21:30;101324.06;;;8.36;44.97
21706;BME280;11014;53.076;18.208;2023-03-18T06:24:00;101337.69;;;8.41;44.96
21706;BME280;11014;53.076;18.208;2023-03-18T06:26:33;101338.50;;;8.41;44.46
21706;BME280;11014;53.076;18.208;2023-03-18T06:29:06;101348.22;;;8.49;44.50
21706;BME280;11014;53.076;18.208;2023-03-18T06:31:40;101347.66;;;8.60;44.63
21706;BME280;11014;53.076;18.208;2023-03-18T06:34:12;101348.31;;;8.68;44.30
21706;BME280;11014;53.076;18.208;2023-03-18T06:36:42;101354.28;;;8.70;43.91
21706;BME280;11014;53.076;18.208;2023-03-18T06:39:16;101351.59;;;8.70;44.09
21706;BME280;11014;53.076;18.208;2023-03-18T06:41:46;101352.88;;;8.81;43.99
21706;BME280;11014;53.076;18.208;2023-03-18T06:44:31;101357.44;;;8.87;43.80
21706;BME280;11014;53.076;18.208;2023-03-18T06:47:09;101357.03;;;8.90;43.82
21706;BME280;11014;53.076;18.208;2023-03-18T06:49:44;101357.66;;;8.92;43.54
21706;BME280;11014;53.076;18.208;2023-03-18T06:52:18;101363.22;;;8.97;43.79
21706;BME280;11014;53.076;18.208;2023-03-18T06:55:05;101346.31;;;8.97;43.42
21706;BME280;11014;53.076;18.208;2023-03-18T06:58:01;101362.84;;;9.00;43.28
21706;BME280;11014;53.076;18.208;2023-03-18T07:00:41;101359.53;;;9.05;43.67
21706;BME280;11014;53.076;18.208;2023-03-18T07:03:18;101358.31;;;9.07;43.75
21706;BME280;11014;53.076;18.208;2023-03-18T07:05:47;101357.91;;;9.10;43.72
21706;BME280;11014;53.076;18.208;2023-03-18T07:08:15;101381.03;;;9.18;43.55
21706;BME280;11014;53.076;18.208;2023-03-18T07:10:44;101371.34;;;9.23;43.52
21706;BME280;11014;53.076;18.208;2023-03-18T07:13:15;101375.88;;;9.29;43.04
21706;BME280;11014;53.076;18.208;2023-03-18T07:15:44;101369.94;;;9.34;43.23
21706;BME280;11014;53.076;18.208;2023-03-18T07:18:15;101382.72;;;9.38;42.88
21706;BME280;11014;53.076;18.208;2023-03-18T07:20:46;101382.94;;;9.50;42.74
21706;BME280;11014;53.076;18.208;2023-03-18T07:23:15;101383.97;;;9.56;42.71
21706;BME280;11014;53.076;18.208;2023-03-18T07:25:44;101385.63;;;9.63;42.49
21706;BME280;11014;53.076;18.208;2023-03-18T07:28:13;101381.91;;;9.71;42.07
21706;BME280;11014;53.076;18.208;2023-03-18T07:30:41;101391.00;;;9.70;41.97
21706;BME280;11014;53.076;18.208;2023-03-18T07:33:10;101384.78;;;9.76;41.99
21706;BME280;11014;53.076;18.208;2023-03-18T07:35:39;101394.72;;;9.82;42.33
21706;BME280;11014;53.076;18.208;2023-03-18T07:38:09;101402.56;;;9.77;41.91
21706;BME280;11014;53.076;18.208;2023-03-18T07:40:38;101388.94;;;9.85;41.98
21706;BME280;11014;53.076;18.208;2023-03-18T07:43:07;101389.31;;;9.95;41.87
21706;BME280;11014;53.076;18.208;2023-03-18T07:45:36;101397.81;;;10.05;41.79
21706;BME280;11014;53.076;18.208;2023-03-18T07:48:05;101391.38;;;10.19;41.14
21706;BME280;11014;53.076;18.208;2023-03-18T07:50:36;101393.44;;;10.30;41.32
21706;BME280;11014;53.076;18.208;2023-03-18T07:53:05;101399.22;;;10.40;40.86
21706;BME280;11014;53.076;18.208;2023-03-18T07:55:33;101401.69;;;10.48;40.65
21706;BME280;11014;53.076;18.208;2023-03-18T07:58:02;101383.47;;;10.50;40.60
21706;BME280;11014;53.076;18.208;2023-03-18T08:00:32;101372.88;;;10.68;40.34
21706;BME280;11014;53.076;18.208;2023-03-18T08:03:00;101380.44;;;10.85;40.42
21706;BME280;11014;53.076;18.208;2023-03-18T08:05:29;101371.94;;;10.94;40.12
21706;BME280;11014;53.076;18.208;2023-03-18T08:07:59;101379.09;;;11.07;39.78
21706;BME280;11014;53.076;18.208;2023-03-18T08:10:29;101379.03;;;11.20;39.48
21706;BME280;11014;53.076;18.208;2023-03-18T08:13:23;101369.13;;;11.45;39.61
21706;BME280;11014;53.076;18.208;2023-03-18T08:15:54;101381.88;;;11.56;39.66
21706;BME280;11014;53.076;18.208;2023-03-18T08:18:23;101380.78;;;11.70;39.25
21706;BME280;11014;53.076;18.208;2023-03-18T08:21:04;101374.44;;;11.83;38.76
21706;BME280;11014;53.076;18.208;2023-03-18T08:23:33;101377.25;;;11.95;39.21
21706;BME280;11014;53.076;18.208;2023-03-18T08:26:02;101380.28;;;12.05;38.64
21706;BME280;11014;53.076;18.208;2023-03-18T08:28:31;101366.28;;;12.14;38.20
21706;BME280;11014;53.076;18.208;2023-03-18T08:31:00;101373.69;;;12.19;37.49
21706;BME280;11014;53.076;18.208;2023-03-18T08:33:28;101358.50;;;12.24;37.98
21706;BME280;11014;53.076;18.208;2023-03-18T08:35:57;101359.81;;;12.40;37.82
21706;BME280;11014;53.076;18.208;2023-03-18T08:38:26;101364.91;;;12.48;37.60
21706;BME280;11014;53.076;18.208;2023-03-18T08:40:56;101368.63;;;12.65;37.95
21706;BME280;11014;53.076;18.208;2023-03-18T08:43:24;101357.72;;;12.90;37.18
21706;BME280;11014;53.076;18.208;2023-03-18T08:45:55;101362.31;;;13.07;36.82
21706;BME280;11014;53.076;18.208;2023-03-18T08:48:24;101358.38;;;13.22;36.80
21706;BME280;11014;53.076;18.208;2023-03-18T08:50:53;101358.63;;;13.32;36.11
21706;BME280;11014;53.076;18.208;2023-03-18T08:53:21;101350.28;;;13.33;35.87
21706;BME280;11014;53.076;18.208;2023-03-18T08:55:50;101361.44;;;13.37;36.17
21706;BME280;11014;53.076;18.208;2023-03-18T08:58:19;101353.16;;;13.38;35.80
21706;BME280;11014;53.076;18.208;2023-03-18T09:00:47;101346.91;;;13.38;35.76
21706;BME280;11014;53.076;18.208;2023-03-18T09:03:17;101344.81;;;13.40;35.90
21706;BME280;11014;53.076;18.208;2023-03-18T09:05:52;101348.91;;;13.42;35.98
21706;BME280;11014;53.076;18.208;2023-03-18T09:09:00;101345.78;;;13.57;36.66
21706;BME280;11014;53.076;18.208;2023-03-18T09:11:29;101349.06;;;13.59;35.63
21706;BME280;11014;53.076;18.208;2023-03-18T09:13:57;101353.91;;;13.69;35.81
21706;BME280;11014;53.076;18.208;2023-03-18T09:16:26;101350.03;;;13.76;35.42
21706;BME280;11014;53.076;18.208;2023-03-18T09:18:55;101354.25;;;13.72;35.02
21706;BME280;11014;53.076;18.208;2023-03-18T09:21:24;101350.03;;;13.76;35.69
21706;BME280;11014;53.076;18.208;2023-03-18T09:23:52;101347.34;;;13.88;35.64
21706;BME280;11014;53.076;18.208;2023-03-18T09:26:21;101347.94;;;14.01;35.86
21706;BME280;11014;53.076;18.208;2023-03-18T09:29:14;101345.31;;;14.18;35.19
21706;BME280;11014;53.076;18.208;2023-03-18T09:31:43;101345.09;;;14.19;35.60
21706;BME280;11014;53.076;18.208;2023-03-18T09:34:12;101348.66;;;14.32;35.58
21706;BME280;11014;53.076;18.208;2023-03-18T09:36:41;101339.19;;;14.46;35.09
21706;BME280;11014;53.076;18.208;2023-03-18T09:39:19;101339.28;;;14.51;34.55
21706;BME280;11014;53.076;18.208;2023-03-18T09:44:32;101332.00;;;14.63;35.48
21706;BME280;11014;53.076;18.208;2023-03-18T09:47:24;101321.25;;;14.79;34.59
21706;BME280;11014;53.076;18.208;2023-03-18T09:53:14;101328.00;;;14.94;34.57
21706;BME280;11014;53.076;18.208;2023-03-18T09:55:46;101330.91;;;15.04;34.24
21706;BME280;11014;53.076;18.208;2023-03-18T09:58:52;101318.78;;;15.23;34.71
21706;BME280;11014;53.076;18.208;2023-03-18T10:01:26;101319.28;;;15.36;34.55
21706;BME280;11014;53.076;18.208;2023-03-18T10:04:27;101325.59;;;15.54;34.56
21706;BME280;11014;53.076;18.208;2023-03-18T10:07:24;101329.34;;;15.69;34.37
21706;BME280;11014;53.076;18.208;2023-03-18T10:10:27;101325.31;;;15.72;33.71
21706;BME280;11014;53.076;18.208;2023-03-18T10:15:43;101321.94;;;15.98;33.48
21706;BME280;11014;53.076;18.208;2023-03-18T10:18:34;101327.84;;;15.95;33.05
21706;BME280;11014;53.076;18.208;2023-03-18T10:21:09;101330.50;;;15.90;33.08
21706;BME280;11014;53.076;18.208;2023-03-18T10:29:30;101313.34;;;16.23;32.75
21706;BME280;11014;53.076;18.208;2023-03-18T10:35:00;101306.84;;;16.45;33.44
21706;BME280;11014;53.076;18.208;2023-03-18T10:37:56;101302.72;;;16.59;33.57
21706;BME280;11014;53.076;18.208;2023-03-18T10:40:52;101302.22;;;16.89;32.37
21706;BME280;11014;53.076;18.208;2023-03-18T10:43:31;101303.50;;;16.82;32.66
21706;BME280;11014;53.076;18.208;2023-03-18T10:49:25;101293.34;;;16.94;31.71
21706;BME280;11014;53.076;18.208;2023-03-18T10:52:28;101281.03;;;16.86;31.71
21706;BME280;11014;53.076;18.208;2023-03-18T10:54:59;101284.72;;;17.02;32.16
21706;BME280;11014;53.076;18.208;2023-03-18T10:57:28;101287.69;;;17.00;31.40
21706;BME280;11014;53.076;18.208;2023-03-18T11:04:52;101290.56;;;17.15;31.22
21706;BME280;11014;53.076;18.208;2023-03-18T11:07:25;101303.88;;;17.17;30.99
21706;BME280;11014;53.076;18.208;2023-03-18T11:10:11;101296.22;;;17.14;30.67
21706;BME280;11014;53.076;18.208;2023-03-18T11:12:41;101284.59;;;17.18;31.39
21706;BME280;11014;53.076;18.208;2023-03-18T11:15:10;101284.91;;;17.22;31.12
21706;BME280;11014;53.076;18.208;2023-03-18T11:17:40;101288.78;;;17.31;31.65
21706;BME280;11014;53.076;18.208;2023-03-18T11:20:21;101291.09;;;17.49;31.42
21706;BME280;11014;53.076;18.208;2023-03-18T11:22:52;101291.75;;;17.56;30.91
21706;BME280;11014;53.076;18.208;2023-03-18T11:25:24;101285.00;;;17.64;30.99
21706;BME280;11014;53.076;18.208;2023-03-18T11:28:02;101285.31;;;17.67;30.80
21706;BME280;11014;53.076;18.208;2023-03-18T11:30:44;101283.13;;;17.64;31.09
21706;BME280;11014;53.076;18.208;2023-03-18T11:33:23;101281.63;;;17.52;30.47
21706;BME280;11014;53.076;18.208;2023-03-18T11:36:05;101276.78;;;17.54;30.63
21706;BME280;11014;53.076;18.208;2023-03-18T11:38:35;101281.16;;;17.60;31.04
21706;BME280;11014;53.076;18.208;2023-03-18T11:41:14;101277.75;;;17.74;31.73
21706;BME280;11014;53.076;18.208;2023-03-18T11:44:02;101272.47;;;18.00;30.63
21706;BME280;11014;53.076;18.208;2023-03-18T11:49:27;101266.56;;;18.18;30.35
21706;BME280;11014;53.076;18.208;2023-03-18T12:02:11;101253.03;;;18.33;30.78
21706;BME280;11014;53.076;18.208;2023-03-18T12:05:02;101248.47;;;18.44;30.68
21706;BME280;11014;53.076;18.208;2023-03-18T12:08:07;101256.44;;;18.65;29.69
21706;BME280;11014;53.076;18.208;2023-03-18T12:10:56;101254.81;;;18.74;29.36
21706;BME280;11014;53.076;18.208;2023-03-18T12:13:45;101265.44;;;18.81;29.97
21706;BME280;11014;53.076;18.208;2023-03-18T12:44:26;101260.91;;;19.42;29.01
21706;BME280;11014;53.076;18.208;2023-03-18T12:47:05;101263.59;;;19.37;27.89
21706;BME280;11014;53.076;18.208;2023-03-18T12:49:41;101260.59;;;19.28;28.85
21706;BME280;11014;53.076;18.208;2023-03-18T12:55:40;101255.69;;;19.35;29.01
21706;BME280;11014;53.076;18.208;2023-03-18T13:00:48;101253.53;;;19.47;29.14
21706;BME280;11014;53.076;18.208;2023-03-18T13:03:32;101254.59;;;19.36;29.00
21706;BME280;11014;53.076;18.208;2023-03-18T13:08:56;101268.22;;;19.36;28.97
21706;BME280;11014;53.076;18.208;2023-03-18T13:14:47;101263.63;;;19.47;28.93
21706;BME280;11014;53.076;18.208;2023-03-18T13:17:23;101265.78;;;19.60;28.51
21706;BME280;11014;53.076;18.208;2023-03-18T13:19:59;101271.78;;;19.72;29.14
21706;BME280;11014;53.076;18.208;2023-03-18T13:25:28;101261.63;;;19.93;28.48
21706;BME280;11014;53.076;18.208;2023-03-18T13:28:23;101264.53;;;20.32;27.64
21706;BME280;11014;53.076;18.208;2023-03-18T13:41:48;101257.97;;;20.38;27.64
21706;BME280;11014;53.076;18.208;2023-03-18T13:47:23;101254.72;;;20.21;28.08
21706;BME280;11014;53.076;18.208;2023-03-18T13:49:59;101254.16;;;20.29;27.77
21706;BME280;11014;53.076;18.208;2023-03-18T13:52:43;101255.22;;;20.33;27.60
21706;BME280;11014;53.076;18.208;2023-03-18T13:58:42;101239.53;;;20.63;27.70
21706;BME280;11014;53.076;18.208;2023-03-18T14:06:56;101253.94;;;21.47;26.64
21706;BME280;11014;53.076;18.208;2023-03-18T14:09:34;101242.06;;;21.33;27.56
21706;BME280;11014;53.076;18.208;2023-03-18T14:12:18;101248.13;;;21.24;27.18
21706;BME280;11014;53.076;18.208;2023-03-18T14:20:15;101243.28;;;21.16;26.99
21706;BME280;11014;53.076;18.208;2023-03-18T14:22:52;101245.44;;;20.81;27.12
21706;BME280;11014;53.076;18.208;2023-03-18T14:26:02;101234.94;;;20.54;26.89
21706;BME280;11014;53.076;18.208;2023-03-18T14:28:42;101234.47;;;20.37;27.99
21706;BME280;11014;53.076;18.208;2023-03-18T14:39:28;101226.53;;;20.89;26.81
21706;BME280;11014;53.076;18.208;2023-03-18T14:42:01;101223.66;;;21.04;27.17
21706;BME280;11014;53.076;18.208;2023-03-18T14:44:53;101225.09;;;21.36;26.72
21706;BME280;11014;53.076;18.208;2023-03-18T14:50:41;101223.84;;;21.52;26.62
21706;BME280;11014;53.076;18.208;2023-03-18T14:53:32;101214.81;;;21.22;26.55
21706;BME280;11014;53.076;18.208;2023-03-18T14:56:03;101222.69;;;20.90;27.00
21706;BME280;11014;53.076;18.208;2023-03-18T14:58:33;101218.25;;;20.60;27.17
21706;BME280;11014;53.076;18.208;2023-03-18T15:01:07;101218.69;;;20.34;27.33
21706;BME280;11014;53.076;18.208;2023-03-18T15:03:42;101211.06;;;20.21;27.71
21706;BME280;11014;53.076;18.208;2023-03-18T15:06:18;101217.16;;;20.02;27.84
21706;BME280;11014;53.076;18.208;2023-03-18T15:09:00;101213.94;;;19.85;28.35
21706;BME280;11014;53.076;18.208;2023-03-18T15:11:43;101220.47;;;19.84;28.58
21706;BME280;11014;53.076;18.208;2023-03-18T15:14:32;101225.69;;;19.81;28.52
21706;BME280;11014;53.076;18.208;2023-03-18T15:17:04;101216.69;;;19.70;28.57
21706;BME280;11014;53.076;18.208;2023-03-18T15:19:42;101217.28;;;19.57;29.27
21706;BME280;11014;53.076;18.208;2023-03-18T15:22:20;101223.56;;;19.52;28.95
21706;BME280;11014;53.076;18.208;2023-03-18T15:25:16;101220.84;;;19.47;29.08
21706;BME280;11014;53.076;18.208;2023-03-18T15:27:49;101218.13;;;19.42;29.76
21706;BME280;11014;53.076;18.208;2023-03-18T15:30:30;101212.09;;;19.45;30.19
21706;BME280;11014;53.076;18.208;2023-03-18T15:33:13;101215.66;;;19.46;29.84
21706;BME280;11014;53.076;18.208;2023-03-18T15:35:53;101217.31;;;19.42;30.02